PWSweather.com
Personal Weather Stations
Station Observations
PRATO
PratoIT 59100

PratoIT 59100

Lat: 43.8956799, Lon: 11.0845155

Elevation: 164

Station Type: Davis Vantage Vue

http://www.meteoprato.it

High Low Average
Temperature 57.4°F14.1°C 48.4°F9.1°C 52.5°F11.4°C
Dew Point 54.0°F12.2°C 46.5°F8.1°C 50.5°F10.3°C
Winds 3.6 mph 5.8 kmh Calm Calm 1.0 mph E1.6 kmh E
Wind Gusts 13.0 mph20.9 kmh -- 2.0 mph3.2 kmh
Humidity 95% 86% 93%
Pressure 29.74 in1007.1 mb 29.57 in1001.4 mb -
Precipitation 2.16 in54.9 mm - -
Hour Temp Dew Point Humidity Winds Wind Gusts Pressure Precip Precip Rate Daily Precip Total
12:00 AM 52.2°F11.2°C 49.9°F9.9°C 92% Calm Calm -- 29.69 in1005.4 mb 0.00 in0.0 mm 0.00 in0.0 mm 0.00 in0.0 mm
12:05 AM 52.2°F11.2°C 50.2°F10.1°C 93% Calm Calm -- 29.69 in1005.4 mb 0.00 in0.0 mm 0.00 in0.0 mm 0.00 in0.0 mm
12:10 AM 52.4°F11.3°C 50.4°F10.2°C 93% Calm Calm -- 29.69 in1005.4 mb 0.00 in0.0 mm 0.00 in0.0 mm 0.00 in0.0 mm
12:15 AM 52.5°F11.4°C 50.5°F10.3°C 93% Calm Calm -- 29.68 in1005.1 mb 0.00 in0.0 mm 0.00 in0.0 mm 0.00 in0.0 mm
12:20 AM 52.6°F11.4°C 50.6°F10.3°C 93% Calm Calm -- 29.68 in1005.1 mb 0.00 in0.0 mm 0.00 in0.0 mm 0.00 in0.0 mm
12:25 AM 52.7°F11.5°C 50.4°F10.2°C 92% Calm Calm -- 29.68 in1005.1 mb 0.00 in0.0 mm 0.00 in0.0 mm 0.00 in0.0 mm
12:30 AM 52.5°F11.4°C 50.2°F10.1°C 92% Calm Calm -- 29.68 in1005.1 mb 0.00 in0.0 mm 0.00 in0.0 mm 0.00 in0.0 mm
12:35 AM 52.4°F11.3°C 50.1°F10.1°C 92% Calm Calm -- 29.68 in1005.1 mb 0.01 in0.3 mm 0.12 in3.0 mm 0.01 in0.3 mm
12:40 AM 52.5°F11.4°C 50.5°F10.3°C 93% Calm Calm -- 29.68 in1005.1 mb 0.02 in0.5 mm 0.12 in3.0 mm 0.02 in0.5 mm
12:45 AM 52.7°F11.5°C 50.7°F10.4°C 93% Calm Calm -- 29.68 in1005.1 mb 0.04 in1.0 mm 0.24 in6.1 mm 0.04 in1.0 mm
12:50 AM 52.9°F11.6°C 50.9°F10.5°C 93% Calm Calm 3.0 mph4.8 kmh 29.68 in1005.1 mb 0.05 in1.3 mm 0.12 in3.0 mm 0.05 in1.3 mm
12:55 AM 52.9°F11.6°C 50.9°F10.5°C 93% Calm Calm 3.0 mph4.8 kmh 29.68 in1005.1 mb 0.06 in1.5 mm 0.12 in3.0 mm 0.06 in1.5 mm
01:00 AM 52.9°F11.6°C 50.9°F10.5°C 93% Calm Calm -- 29.67 in1004.7 mb 0.07 in1.8 mm 0.01 in0.3 mm 0.07 in1.8 mm
01:05 AM 52.8°F11.6°C 50.8°F10.4°C 93% Calm Calm -- 29.67 in1004.7 mb 0.07 in1.8 mm 0.00 in0.0 mm 0.07 in1.8 mm
01:10 AM 52.7°F11.5°C 50.7°F10.4°C 93% Calm Calm -- 29.67 in1004.7 mb 0.09 in2.3 mm 0.24 in6.1 mm 0.09 in2.3 mm
01:15 AM 52.6°F11.4°C 50.6°F10.3°C 93% Calm Calm -- 29.66 in1004.4 mb 0.09 in2.3 mm 0.00 in0.0 mm 0.09 in2.3 mm
01:20 AM 52.5°F11.4°C 50.5°F10.3°C 93% Calm Calm -- 29.66 in1004.4 mb 0.09 in2.3 mm 0.00 in0.0 mm 0.09 in2.3 mm
01:25 AM 52.4°F11.3°C 50.4°F10.2°C 93% Calm Calm 4.0 mph6.4 kmh 29.66 in1004.4 mb 0.09 in2.3 mm 0.00 in0.0 mm 0.09 in2.3 mm
01:30 AM 52.3°F11.3°C 50.6°F10.3°C 94% Calm Calm 4.0 mph6.4 kmh 29.65 in1004.1 mb 0.09 in2.3 mm 0.00 in0.0 mm 0.09 in2.3 mm
01:35 AM 52.3°F11.3°C 50.6°F10.3°C 94% Calm Calm -- 29.65 in1004.1 mb 0.09 in2.3 mm 0.00 in0.0 mm 0.09 in2.3 mm
01:40 AM 52.3°F11.3°C 50.6°F10.3°C 94% Calm Calm -- 29.65 in1004.1 mb 0.07 in1.8 mm 0.00 in0.0 mm 0.09 in2.3 mm
01:45 AM 52.3°F11.3°C 50.6°F10.3°C 94% Calm Calm -- 29.64 in1003.7 mb 0.06 in1.5 mm 0.00 in0.0 mm 0.09 in2.3 mm
01:50 AM 52.4°F11.3°C 50.7°F10.4°C 94% Calm Calm -- 29.64 in1003.7 mb 0.05 in1.3 mm 0.00 in0.0 mm 0.09 in2.3 mm
01:55 AM 52.5°F11.4°C 50.8°F10.4°C 94% Calm Calm 4.0 mph6.4 kmh 29.65 in1004.1 mb 0.04 in1.0 mm 0.00 in0.0 mm 0.09 in2.3 mm
02:00 AM 52.7°F11.5°C 50.7°F10.4°C 93% 0.4 mph WSW0.6 kmh WSW 7.0 mph11.3 kmh 29.65 in1004.1 mb 0.02 in0.5 mm 0.00 in0.0 mm 0.09 in2.3 mm
02:05 AM 52.8°F11.6°C 51.1°F10.6°C 94% 1.9 mph WSW3.1 kmh WSW 7.0 mph11.3 kmh 29.65 in1004.1 mb 0.02 in0.5 mm 0.00 in0.0 mm 0.09 in2.3 mm
02:10 AM 52.8°F11.6°C 51.1°F10.6°C 94% 3.3 mph WSW5.3 kmh WSW 6.0 mph9.7 kmh 29.65 in1004.1 mb 0.01 in0.3 mm 0.00 in0.0 mm 0.09 in2.3 mm
02:15 AM 52.7°F11.5°C 51.0°F10.6°C 94% 2.9 mph WSW4.7 kmh WSW 6.0 mph9.7 kmh 29.65 in1004.1 mb 0.00 in0.0 mm 0.00 in0.0 mm 0.09 in2.3 mm
02:20 AM 52.7°F11.5°C 51.0°F10.6°C 94% 1.6 mph WSW2.6 kmh WSW 5.0 mph8.0 kmh 29.65 in1004.1 mb 0.00 in0.0 mm 0.00 in0.0 mm 0.09 in2.3 mm
02:25 AM 52.6°F11.4°C 50.9°F10.5°C 94% 0.5 mph NW0.8 kmh NW 1.0 mph1.6 kmh 29.65 in1004.1 mb 0.00 in0.0 mm 0.00 in0.0 mm 0.09 in2.3 mm
02:30 AM 52.6°F11.4°C 50.9°F10.5°C 94% Calm Calm 1.0 mph1.6 kmh 29.65 in1004.1 mb 0.00 in0.0 mm 0.00 in0.0 mm 0.09 in2.3 mm
02:35 AM 52.6°F11.4°C 50.9°F10.5°C 94% Calm Calm -- 29.64 in1003.7 mb 0.01 in0.3 mm 0.12 in3.0 mm 0.10 in2.5 mm
02:40 AM 52.5°F11.4°C 50.8°F10.4°C 94% Calm Calm -- 29.64 in1003.7 mb 0.01 in0.3 mm 0.00 in0.0 mm 0.10 in2.5 mm
02:45 AM 52.5°F11.4°C 50.8°F10.4°C 94% Calm Calm -- 29.64 in1003.7 mb 0.02 in0.5 mm 0.12 in3.0 mm 0.11 in2.8 mm
02:50 AM 52.5°F11.4°C 50.8°F10.4°C 94% Calm Calm -- 29.63 in1003.4 mb 0.02 in0.5 mm 0.00 in0.0 mm 0.11 in2.8 mm
02:55 AM 52.5°F11.4°C 50.8°F10.4°C 94% Calm Calm -- 29.63 in1003.4 mb 0.02 in0.5 mm 0.00 in0.0 mm 0.12 in3.0 mm
03:00 AM 52.4°F11.3°C 50.7°F10.4°C 94% Calm Calm -- 29.63 in1003.4 mb 0.03 in0.8 mm 0.01 in0.3 mm 0.13 in3.3 mm
03:05 AM 52.4°F11.3°C 50.7°F10.4°C 94% Calm Calm -- 29.63 in1003.4 mb 0.03 in0.8 mm 0.00 in0.0 mm 0.13 in3.3 mm
03:10 AM 52.4°F11.3°C 50.7°F10.4°C 94% Calm Calm -- 29.62 in1003.0 mb 0.04 in1.0 mm 0.12 in3.0 mm 0.13 in3.3 mm
03:15 AM 52.5°F11.4°C 50.8°F10.4°C 94% Calm Calm -- 29.62 in1003.0 mb 0.04 in1.0 mm 0.00 in0.0 mm 0.13 in3.3 mm
03:20 AM 52.5°F11.4°C 50.8°F10.4°C 94% Calm Calm -- 29.62 in1003.0 mb 0.04 in1.0 mm 0.00 in0.0 mm 0.13 in3.3 mm
03:25 AM 52.6°F11.4°C 50.9°F10.5°C 94% Calm Calm -- 29.62 in1003.0 mb 0.05 in1.3 mm 0.12 in3.0 mm 0.14 in3.6 mm
03:30 AM 52.5°F11.4°C 50.8°F10.4°C 94% Calm Calm 3.0 mph4.8 kmh 29.62 in1003.0 mb 0.05 in1.3 mm 0.00 in0.0 mm 0.14 in3.6 mm
03:35 AM 52.6°F11.4°C 50.9°F10.5°C 94% 0.4 mph WSW0.6 kmh WSW 3.0 mph4.8 kmh 29.61 in1002.7 mb 0.04 in1.0 mm 0.00 in0.0 mm 0.14 in3.6 mm
03:40 AM 52.7°F11.5°C 51.0°F10.6°C 94% 1.1 mph WSW1.8 kmh WSW 3.0 mph4.8 kmh 29.61 in1002.7 mb 0.04 in1.0 mm 0.00 in0.0 mm 0.14 in3.6 mm
03:45 AM 52.7°F11.5°C 51.0°F10.6°C 94% 1.6 mph WSW2.6 kmh WSW 4.0 mph6.4 kmh 29.61 in1002.7 mb 0.03 in0.8 mm 0.00 in0.0 mm 0.14 in3.6 mm
03:50 AM 52.7°F11.5°C 51.0°F10.6°C 94% 1.5 mph WSW2.4 kmh WSW 4.0 mph6.4 kmh 29.61 in1002.7 mb 0.02 in0.5 mm 0.00 in0.0 mm 0.14 in3.6 mm
03:55 AM 52.6°F11.4°C 50.9°F10.5°C 94% 0.8 mph 1.3 kmh -- 29.61 in1002.7 mb 0.03 in0.8 mm 0.12 in3.0 mm 0.15 in3.8 mm
04:00 AM 52.6°F11.4°C 50.9°F10.5°C 94% 0.2 mph 0.3 kmh -- 29.60 in1002.4 mb 0.02 in0.5 mm 0.00 in0.0 mm 0.15 in3.8 mm
04:05 AM 52.6°F11.4°C 50.9°F10.5°C 94% Calm Calm -- 29.60 in1002.4 mb 0.03 in0.8 mm 0.12 in3.0 mm 0.16 in4.1 mm
04:10 AM 52.6°F11.4°C 50.9°F10.5°C 94% Calm Calm -- 29.60 in1002.4 mb 0.04 in1.0 mm 0.12 in3.0 mm 0.17 in4.3 mm
04:15 AM 52.7°F11.5°C 51.0°F10.6°C 94% Calm Calm 5.0 mph8.0 kmh 29.61 in1002.7 mb 0.06 in1.5 mm 0.24 in6.1 mm 0.20 in5.1 mm
04:20 AM 52.6°F11.4°C 50.9°F10.5°C 94% 0.9 mph WSW1.4 kmh WSW 7.0 mph11.3 kmh 29.61 in1002.7 mb 0.13 in3.3 mm 0.84 in21.3 mm 0.28 in7.1 mm
04:25 AM 52.6°F11.4°C 50.9°F10.5°C 94% 2.5 mph WSW4.0 kmh WSW 7.0 mph11.3 kmh 29.61 in1002.7 mb 0.15 in3.8 mm 0.24 in6.1 mm 0.29 in7.4 mm
04:30 AM 52.4°F11.3°C 50.7°F10.4°C 94% 3.6 mph WSW5.8 kmh WSW 8.0 mph12.9 kmh 29.62 in1003.0 mb 0.20 in5.1 mm 0.60 in15.2 mm 0.34 in8.6 mm
04:35 AM 52.5°F11.4°C 50.8°F10.4°C 94% 3.6 mph WSW5.8 kmh WSW 8.0 mph12.9 kmh 29.63 in1003.4 mb 0.23 in5.8 mm 0.36 in9.1 mm 0.37 in9.4 mm
04:40 AM 52.3°F11.3°C 50.6°F10.3°C 94% 3.1 mph WSW5.0 kmh WSW 11.0 mph17.7 kmh 29.63 in1003.4 mb 0.25 in6.4 mm 0.24 in6.1 mm 0.39 in9.9 mm
04:45 AM 52.4°F11.3°C 50.7°F10.4°C 94% 3.5 mph WSW5.6 kmh WSW 11.0 mph17.7 kmh 29.63 in1003.4 mb 0.28 in7.1 mm 0.36 in9.1 mm 0.42 in10.7 mm
04:50 AM 52.3°F11.3°C 50.6°F10.3°C 94% 3.0 mph WSW4.8 kmh WSW 5.0 mph8.0 kmh 29.62 in1003.0 mb 0.28 in7.1 mm 0.00 in0.0 mm 0.43 in10.9 mm
04:55 AM 52.3°F11.3°C 50.6°F10.3°C 94% 1.1 mph NW1.8 kmh NW 2.0 mph3.2 kmh 29.61 in1002.7 mb 0.30 in7.6 mm 0.24 in6.1 mm 0.45 in11.4 mm
05:00 AM 52.2°F11.2°C 50.5°F10.3°C 94% Calm Calm 2.0 mph3.2 kmh 29.61 in1002.7 mb 0.31 in7.9 mm 0.01 in0.3 mm 0.46 in11.7 mm
05:05 AM 52.2°F11.2°C 50.5°F10.3°C 94% Calm Calm 2.0 mph3.2 kmh 29.61 in1002.7 mb 0.31 in7.9 mm 0.00 in0.0 mm 0.47 in11.9 mm
05:10 AM 52.1°F11.2°C 50.4°F10.2°C 94% Calm Calm -- 29.61 in1002.7 mb 0.31 in7.9 mm 0.00 in0.0 mm 0.49 in12.4 mm
05:15 AM 52.1°F11.2°C 50.4°F10.2°C 94% Calm Calm -- 29.61 in1002.7 mb 0.31 in7.9 mm 0.00 in0.0 mm 0.50 in12.7 mm
05:20 AM 52.1°F11.2°C 50.4°F10.2°C 94% Calm Calm -- 29.61 in1002.7 mb 0.25 in6.4 mm 0.00 in0.0 mm 0.53 in13.5 mm
05:25 AM 52.0°F11.1°C 50.3°F10.2°C 94% Calm Calm -- 29.61 in1002.7 mb 0.26 in6.6 mm 0.12 in3.0 mm 0.55 in14.0 mm
05:30 AM 52.1°F11.2°C 50.4°F10.2°C 94% Calm Calm -- 29.62 in1003.0 mb 0.22 in5.6 mm 0.00 in0.0 mm 0.56 in14.2 mm
05:35 AM 52.2°F11.2°C 50.5°F10.3°C 94% Calm Calm -- 29.61 in1002.7 mb 0.20 in5.1 mm 0.00 in0.0 mm 0.58 in14.7 mm
05:40 AM 52.1°F11.2°C 50.4°F10.2°C 94% Calm Calm -- 29.61 in1002.7 mb 0.22 in5.6 mm 0.24 in6.1 mm 0.61 in15.5 mm
05:45 AM 52.1°F11.2°C 50.4°F10.2°C 94% Calm Calm -- 29.60 in1002.4 mb 0.22 in5.6 mm 0.00 in0.0 mm 0.64 in16.3 mm
05:50 AM 52.1°F11.2°C 50.7°F10.4°C 95% Calm Calm -- 29.60 in1002.4 mb 0.24 in6.1 mm 0.24 in6.1 mm 0.66 in16.8 mm
05:55 AM 52.1°F11.2°C 50.7°F10.4°C 95% Calm Calm 3.0 mph4.8 kmh 29.60 in1002.4 mb 0.23 in5.8 mm 0.00 in0.0 mm 0.68 in17.3 mm
06:00 AM 52.1°F11.2°C 50.7°F10.4°C 95% 0.4 mph NE0.6 kmh NE 5.0 mph8.0 kmh 29.59 in1002.0 mb 0.24 in6.1 mm 0.01 in0.3 mm 0.69 in17.5 mm
06:05 AM 52.1°F11.2°C 50.7°F10.4°C 95% 1.4 mph NE2.3 kmh NE 5.0 mph8.0 kmh 29.59 in1002.0 mb 0.23 in5.8 mm 0.00 in0.0 mm 0.70 in17.8 mm
06:10 AM 52.1°F11.2°C 50.7°F10.4°C 95% 2.5 mph NE4.0 kmh NE 5.0 mph8.0 kmh 29.59 in1002.0 mb 0.23 in5.8 mm 0.00 in0.0 mm 0.72 in18.3 mm
06:15 AM 52.1°F11.2°C 50.7°F10.4°C 95% 2.7 mph NE4.3 kmh NE 4.0 mph6.4 kmh 29.59 in1002.0 mb 0.22 in5.6 mm 0.00 in0.0 mm 0.72 in18.3 mm
06:20 AM 52.1°F11.2°C 50.7°F10.4°C 95% 1.8 mph NE2.9 kmh NE 2.0 mph3.2 kmh 29.59 in1002.0 mb 0.20 in5.1 mm 0.00 in0.0 mm 0.73 in18.5 mm
06:25 AM 52.0°F11.1°C 50.6°F10.3°C 95% 0.6 mph 1.0 kmh -- 29.59 in1002.0 mb 0.19 in4.8 mm 0.00 in0.0 mm 0.74 in18.8 mm
06:30 AM 52.1°F11.2°C 50.7°F10.4°C 95% Calm Calm -- 29.58 in1001.7 mb 0.20 in5.1 mm 0.12 in3.0 mm 0.76 in19.3 mm
06:35 AM 52.1°F11.2°C 50.7°F10.4°C 95% Calm Calm -- 29.58 in1001.7 mb 0.19 in4.8 mm 0.00 in0.0 mm 0.77 in19.6 mm
06:40 AM 52.1°F11.2°C 50.7°F10.4°C 95% Calm Calm -- 29.58 in1001.7 mb 0.17 in4.3 mm 0.00 in0.0 mm 0.80 in20.3 mm
06:45 AM 52.1°F11.2°C 50.7°F10.4°C 95% Calm Calm -- 29.58 in1001.7 mb 0.17 in4.3 mm 0.00 in0.0 mm 0.80 in20.3 mm
06:50 AM 52.1°F11.2°C 50.7°F10.4°C 95% Calm Calm -- 29.58 in1001.7 mb 0.16 in4.1 mm 0.00 in0.0 mm 0.82 in20.8 mm
06:55 AM 52.1°F11.2°C 50.7°F10.4°C 95% Calm Calm -- 29.57 in1001.4 mb 0.15 in3.8 mm 0.00 in0.0 mm 0.83 in21.1 mm
07:00 AM 52.1°F11.2°C 50.7°F10.4°C 95% Calm Calm 3.0 mph4.8 kmh 29.57 in1001.4 mb 0.14 in3.6 mm 0.00 in0.0 mm 0.83 in21.1 mm
07:05 AM 52.1°F11.2°C 50.7°F10.4°C 95% 0.3 mph NE0.5 kmh NE 3.0 mph4.8 kmh 29.57 in1001.4 mb 0.13 in3.3 mm 0.00 in0.0 mm 0.83 in21.1 mm
07:10 AM 52.1°F11.2°C 50.7°F10.4°C 95% 0.8 mph NE1.3 kmh NE 2.0 mph3.2 kmh 29.57 in1001.4 mb 0.12 in3.0 mm 0.00 in0.0 mm 0.83 in21.1 mm
07:15 AM 52.1°F11.2°C 50.7°F10.4°C 95% 0.5 mph 0.8 kmh -- 29.57 in1001.4 mb 0.12 in3.0 mm 0.00 in0.0 mm 0.84 in21.3 mm
07:20 AM 52.1°F11.2°C 50.7°F10.4°C 95% Calm Calm -- 29.58 in1001.7 mb 0.10 in2.5 mm 0.00 in0.0 mm 0.84 in21.3 mm
07:25 AM 52.1°F11.2°C 50.7°F10.4°C 95% Calm Calm -- 29.58 in1001.7 mb 0.12 in3.0 mm 0.24 in6.1 mm 0.86 in21.8 mm
07:30 AM 52.2°F11.2°C 50.8°F10.4°C 95% Calm Calm 3.0 mph4.8 kmh 29.58 in1001.7 mb 0.11 in2.8 mm 0.00 in0.0 mm 0.87 in22.1 mm
07:35 AM 52.2°F11.2°C 50.8°F10.4°C 95% 0.1 mph NE0.2 kmh NE 4.0 mph6.4 kmh 29.58 in1001.7 mb 0.09 in2.3 mm 0.00 in0.0 mm 0.87 in22.1 mm
07:40 AM 52.2°F11.2°C 50.8°F10.4°C 95% 0.6 mph NE1.0 kmh NE 4.0 mph6.4 kmh 29.58 in1001.7 mb 0.09 in2.3 mm 0.00 in0.0 mm 0.89 in22.6 mm
07:45 AM 52.2°F11.2°C 50.8°F10.4°C 95% 0.9 mph NE1.4 kmh NE 2.0 mph3.2 kmh 29.59 in1002.0 mb 0.08 in2.0 mm 0.00 in0.0 mm 0.89 in22.6 mm
07:50 AM 52.2°F11.2°C 50.8°F10.4°C 95% 0.4 mph 0.6 kmh -- 29.59 in1002.0 mb 0.09 in2.3 mm 0.12 in3.0 mm 0.91 in23.1 mm
07:55 AM 52.2°F11.2°C 50.8°F10.4°C 95% Calm Calm -- 29.59 in1002.0 mb 0.09 in2.3 mm 0.00 in0.0 mm 0.92 in23.4 mm
08:00 AM 52.2°F11.2°C 50.8°F10.4°C 95% Calm Calm -- 29.59 in1002.0 mb 0.09 in2.3 mm 0.00 in0.0 mm 0.92 in23.4 mm
08:05 AM 52.2°F11.2°C 50.8°F10.4°C 95% Calm Calm 2.0 mph3.2 kmh 29.59 in1002.0 mb 0.09 in2.3 mm 0.00 in0.0 mm 0.92 in23.4 mm
08:10 AM 52.3°F11.3°C 50.9°F10.5°C 95% Calm Calm 2.0 mph3.2 kmh 29.59 in1002.0 mb 0.09 in2.3 mm 0.00 in0.0 mm 0.92 in23.4 mm
08:15 AM 52.4°F11.3°C 51.0°F10.6°C 95% 0.4 mph WSW0.6 kmh WSW 3.0 mph4.8 kmh 29.59 in1002.0 mb 0.08 in2.0 mm 0.00 in0.0 mm 0.92 in23.4 mm
08:20 AM 52.5°F11.4°C 51.1°F10.6°C 95% 0.9 mph WSW1.4 kmh WSW 4.0 mph6.4 kmh 29.59 in1002.0 mb 0.08 in2.0 mm 0.00 in0.0 mm 0.92 in23.4 mm
08:25 AM 52.6°F11.4°C 51.2°F10.7°C 95% 1.0 mph SW1.6 kmh SW 6.0 mph9.7 kmh 29.59 in1002.0 mb 0.06 in1.5 mm 0.00 in0.0 mm 0.92 in23.4 mm
08:30 AM 52.8°F11.6°C 51.4°F10.8°C 95% 1.5 mph SW2.4 kmh SW 6.0 mph9.7 kmh 29.59 in1002.0 mb 0.06 in1.5 mm 0.00 in0.0 mm 0.92 in23.4 mm
08:35 AM 52.9°F11.6°C 51.2°F10.7°C 94% 2.6 mph SW4.2 kmh SW 7.0 mph11.3 kmh 29.60 in1002.4 mb 0.05 in1.3 mm 0.00 in0.0 mm 0.92 in23.4 mm
08:40 AM 53.0°F11.7°C 51.3°F10.7°C 94% 3.6 mph SW5.8 kmh SW 7.0 mph11.3 kmh 29.59 in1002.0 mb 0.04 in1.0 mm 0.00 in0.0 mm 0.93 in23.6 mm
08:45 AM 53.0°F11.7°C 51.3°F10.7°C 94% 3.5 mph SW5.6 kmh SW 5.0 mph8.0 kmh 29.59 in1002.0 mb 0.06 in1.5 mm 0.24 in6.1 mm 0.94 in23.9 mm
08:50 AM 53.1°F11.7°C 51.4°F10.8°C 94% 2.3 mph SW3.7 kmh SW 5.0 mph8.0 kmh 29.59 in1002.0 mb 0.04 in1.0 mm 0.00 in0.0 mm 0.94 in23.9 mm
08:55 AM 53.1°F11.7°C 51.4°F10.8°C 94% 1.3 mph SW2.1 kmh SW 6.0 mph9.7 kmh 29.60 in1002.4 mb 0.02 in0.5 mm 0.00 in0.0 mm 0.94 in23.9 mm
09:00 AM 53.1°F11.7°C 51.4°F10.8°C 94% 1.5 mph SW2.4 kmh SW 7.0 mph11.3 kmh 29.60 in1002.4 mb 0.02 in0.5 mm 0.00 in0.0 mm 0.94 in23.9 mm
09:05 AM 53.2°F11.8°C 51.5°F10.8°C 94% 2.5 mph SW4.0 kmh SW 8.0 mph12.9 kmh 29.60 in1002.4 mb 0.02 in0.5 mm 0.00 in0.0 mm 0.94 in23.9 mm
09:10 AM 53.3°F11.8°C 51.6°F10.9°C 94% 3.0 mph SW4.8 kmh SW 8.0 mph12.9 kmh 29.61 in1002.7 mb 0.02 in0.5 mm 0.00 in0.0 mm 0.94 in23.9 mm
09:15 AM 53.4°F11.9°C 51.7°F10.9°C 94% 3.0 mph SW4.8 kmh SW 7.0 mph11.3 kmh 29.61 in1002.7 mb 0.02 in0.5 mm 0.00 in0.0 mm 0.94 in23.9 mm
09:20 AM 53.4°F11.9°C 51.7°F10.9°C 94% 2.6 mph SW4.2 kmh SW 7.0 mph11.3 kmh 29.60 in1002.4 mb 0.02 in0.5 mm 0.00 in0.0 mm 0.94 in23.9 mm
09:25 AM 53.6°F12.0°C 51.9°F11.1°C 94% 2.2 mph SW3.5 kmh SW 6.0 mph9.7 kmh 29.61 in1002.7 mb 0.02 in0.5 mm 0.00 in0.0 mm 0.94 in23.9 mm
09:30 AM 53.8°F12.1°C 52.1°F11.2°C 94% 2.0 mph SW3.2 kmh SW 6.0 mph9.7 kmh 29.60 in1002.4 mb 0.02 in0.5 mm 0.00 in0.0 mm 0.94 in23.9 mm
09:35 AM 54.0°F12.2°C 52.3°F11.3°C 94% 1.4 mph SW2.3 kmh SW 4.0 mph6.4 kmh 29.60 in1002.4 mb 0.02 in0.5 mm 0.00 in0.0 mm 0.94 in23.9 mm
09:40 AM 54.2°F12.3°C 52.2°F11.2°C 93% 1.0 mph SW1.6 kmh SW 8.0 mph12.9 kmh 29.59 in1002.0 mb 0.02 in0.5 mm 0.00 in0.0 mm 0.94 in23.9 mm
09:45 AM 54.5°F12.5°C 52.8°F11.6°C 94% 1.5 mph SW2.4 kmh SW 8.0 mph12.9 kmh 29.59 in1002.0 mb 0.00 in0.0 mm 0.00 in0.0 mm 0.94 in23.9 mm
09:50 AM 54.8°F12.7°C 52.8°F11.6°C 93% 2.2 mph SW3.5 kmh SW 8.0 mph12.9 kmh 29.60 in1002.4 mb 0.00 in0.0 mm 0.00 in0.0 mm 0.94 in23.9 mm
09:55 AM 55.1°F12.8°C 52.8°F11.6°C 92% 2.2 mph SW3.5 kmh SW 8.0 mph12.9 kmh 29.60 in1002.4 mb 0.00 in0.0 mm 0.00 in0.0 mm 0.94 in23.9 mm
10:00 AM 55.3°F12.9°C 53.0°F11.7°C 92% 2.0 mph SW3.2 kmh SW 7.0 mph11.3 kmh 29.59 in1002.0 mb 0.00 in0.0 mm 0.00 in0.0 mm 0.94 in23.9 mm
10:05 AM 55.5°F13.1°C 52.9°F11.6°C 91% 2.0 mph SW3.2 kmh SW 8.0 mph12.9 kmh 29.59 in1002.0 mb 0.00 in0.0 mm 0.00 in0.0 mm 0.94 in23.9 mm
10:10 AM 55.6°F13.1°C 53.0°F11.7°C 91% 2.0 mph SW3.2 kmh SW 8.0 mph12.9 kmh 29.60 in1002.4 mb 0.00 in0.0 mm 0.00 in0.0 mm 0.94 in23.9 mm
10:15 AM 55.7°F13.2°C 52.8°F11.6°C 90% 2.5 mph SW4.0 kmh SW 8.0 mph12.9 kmh 29.61 in1002.7 mb 0.00 in0.0 mm 0.00 in0.0 mm 0.94 in23.9 mm
10:20 AM 55.8°F13.2°C 52.9°F11.6°C 90% 3.0 mph SW4.8 kmh SW 7.0 mph11.3 kmh 29.61 in1002.7 mb 0.00 in0.0 mm 0.00 in0.0 mm 0.94 in23.9 mm
10:25 AM 55.8°F13.2°C 52.9°F11.6°C 90% 2.9 mph SW4.7 kmh SW 7.0 mph11.3 kmh 29.60 in1002.4 mb 0.00 in0.0 mm 0.00 in0.0 mm 0.94 in23.9 mm
10:30 AM 55.9°F13.3°C 53.0°F11.7°C 90% 2.4 mph SW3.9 kmh SW 4.0 mph6.4 kmh 29.60 in1002.4 mb 0.00 in0.0 mm 0.00 in0.0 mm 0.94 in23.9 mm
10:35 AM 56.0°F13.3°C 53.1°F11.7°C 90% 1.5 mph SSW2.4 kmh SSW 6.0 mph9.7 kmh 29.60 in1002.4 mb 0.00 in0.0 mm 0.00 in0.0 mm 0.94 in23.9 mm
10:40 AM 56.2°F13.4°C 53.3°F11.8°C 90% 1.5 mph SW2.4 kmh SW 6.0 mph9.7 kmh 29.60 in1002.4 mb 0.00 in0.0 mm 0.00 in0.0 mm 0.94 in23.9 mm
10:45 AM 56.3°F13.5°C 53.4°F11.9°C 90% 2.0 mph SW3.2 kmh SW 6.0 mph9.7 kmh 29.61 in1002.7 mb 0.00 in0.0 mm 0.00 in0.0 mm 0.94 in23.9 mm
10:50 AM 56.3°F13.5°C 53.1°F11.7°C 89% 2.0 mph SW3.2 kmh SW 6.0 mph9.7 kmh 29.61 in1002.7 mb 0.00 in0.0 mm 0.00 in0.0 mm 0.94 in23.9 mm
10:55 AM 56.3°F13.5°C 53.4°F11.9°C 90% 2.3 mph SW3.7 kmh SW 6.0 mph9.7 kmh 29.61 in1002.7 mb 0.00 in0.0 mm 0.00 in0.0 mm 0.94 in23.9 mm
11:00 AM 56.4°F13.6°C 53.2°F11.8°C 89% 2.1 mph WSW3.4 kmh WSW 6.0 mph9.7 kmh 29.61 in1002.7 mb 0.00 in0.0 mm 0.00 in0.0 mm 0.94 in23.9 mm
11:05 AM 56.2°F13.4°C 53.3°F11.8°C 90% 0.9 mph 1.4 kmh -- 29.61 in1002.7 mb 0.00 in0.0 mm 0.00 in0.0 mm 0.94 in23.9 mm
11:10 AM 56.3°F13.5°C 53.4°F11.9°C 90% 0.1 mph 0.2 kmh -- 29.61 in1002.7 mb 0.00 in0.0 mm 0.00 in0.0 mm 0.94 in23.9 mm
11:15 AM 56.3°F13.5°C 53.4°F11.9°C 90% Calm Calm -- 29.61 in1002.7 mb 0.00 in0.0 mm 0.00 in0.0 mm 0.94 in23.9 mm
11:20 AM 56.5°F13.6°C 53.6°F12.0°C 90% Calm Calm -- 29.61 in1002.7 mb 0.00 in0.0 mm 0.00 in0.0 mm 0.94 in23.9 mm
11:25 AM 56.5°F13.6°C 53.6°F12.0°C 90% Calm Calm -- 29.61 in1002.7 mb 0.00 in0.0 mm 0.00 in0.0 mm 0.94 in23.9 mm
11:30 AM 56.4°F13.6°C 53.2°F11.8°C 89% Calm Calm -- 29.61 in1002.7 mb 0.00 in0.0 mm 0.00 in0.0 mm 0.94 in23.9 mm
11:35 AM 56.6°F13.7°C 53.7°F12.1°C 90% Calm Calm -- 29.61 in1002.7 mb 0.00 in0.0 mm 0.00 in0.0 mm 0.94 in23.9 mm
11:40 AM 56.8°F13.8°C 53.6°F12.0°C 89% Calm Calm -- 29.61 in1002.7 mb 0.00 in0.0 mm 0.00 in0.0 mm 0.94 in23.9 mm
11:45 AM 56.8°F13.8°C 53.6°F12.0°C 89% Calm Calm -- 29.61 in1002.7 mb 0.00 in0.0 mm 0.00 in0.0 mm 0.94 in23.9 mm
11:50 AM 57.0°F13.9°C 53.8°F12.1°C 89% Calm Calm -- 29.61 in1002.7 mb 0.00 in0.0 mm 0.00 in0.0 mm 0.94 in23.9 mm
11:55 AM 57.1°F13.9°C 53.9°F12.2°C 89% Calm Calm -- 29.60 in1002.4 mb 0.00 in0.0 mm 0.00 in0.0 mm 0.94 in23.9 mm
12:00 PM 57.0°F13.9°C 53.8°F12.1°C 89% Calm Calm -- 29.60 in1002.4 mb 0.00 in0.0 mm 0.00 in0.0 mm 0.94 in23.9 mm
12:05 PM 57.2°F14.0°C 54.0°F12.2°C 89% Calm Calm -- 29.60 in1002.4 mb 0.00 in0.0 mm 0.00 in0.0 mm 0.94 in23.9 mm
12:10 PM 57.2°F14.0°C 53.7°F12.1°C 88% Calm Calm -- 29.60 in1002.4 mb 0.00 in0.0 mm 0.00 in0.0 mm 0.94 in23.9 mm
12:15 PM 57.1°F13.9°C 53.6°F12.0°C 88% Calm Calm -- 29.60 in1002.4 mb 0.00 in0.0 mm 0.00 in0.0 mm 0.94 in23.9 mm
12:20 PM 57.2°F14.0°C 53.4°F11.9°C 87% Calm Calm -- 29.60 in1002.4 mb 0.00 in0.0 mm 0.00 in0.0 mm 0.94 in23.9 mm
12:25 PM 57.3°F14.1°C 53.5°F11.9°C 87% Calm Calm -- 29.60 in1002.4 mb 0.00 in0.0 mm 0.00 in0.0 mm 0.94 in23.9 mm
12:30 PM 57.4°F14.1°C 53.2°F11.8°C 86% Calm Calm -- 29.60 in1002.4 mb 0.01 in0.3 mm 0.12 in3.0 mm 0.95 in24.1 mm
12:35 PM 57.2°F14.0°C 53.4°F11.9°C 87% 0.2 mph SW0.3 kmh SW 6.0 mph9.7 kmh 29.60 in1002.4 mb 0.02 in0.5 mm 0.12 in3.0 mm 0.96 in24.4 mm
12:40 PM 57.1°F13.9°C 53.6°F12.0°C 88% 0.7 mph SW1.1 kmh SW 6.0 mph9.7 kmh 29.60 in1002.4 mb 0.06 in1.5 mm 0.48 in12.2 mm 1.01 in25.7 mm
12:45 PM 56.8°F13.8°C 53.3°F11.8°C 88% 1.3 mph WSW2.1 kmh WSW 13.0 mph20.9 kmh 29.61 in1002.7 mb 0.07 in1.8 mm 0.12 in3.0 mm 1.02 in25.9 mm
12:50 PM 56.5°F13.6°C 53.6°F12.0°C 90% 2.2 mph WSW3.5 kmh WSW 13.0 mph20.9 kmh 29.61 in1002.7 mb 0.12 in3.0 mm 0.60 in15.2 mm 1.06 in26.9 mm
12:55 PM 56.0°F13.3°C 52.5°F11.4°C 88% 2.8 mph WSW4.5 kmh WSW 13.0 mph20.9 kmh 29.61 in1002.7 mb 0.13 in3.3 mm 0.12 in3.0 mm 1.07 in27.2 mm
01:00 PM 54.4°F12.4°C 50.9°F10.5°C 88% 2.0 mph WSW3.2 kmh WSW 4.0 mph6.4 kmh 29.61 in1002.7 mb 0.13 in3.3 mm 0.00 in0.0 mm 1.08 in27.4 mm
01:05 PM 53.8°F12.1°C 50.6°F10.3°C 89% 1.1 mph WSW1.8 kmh WSW 4.0 mph6.4 kmh 29.61 in1002.7 mb 0.15 in3.8 mm 0.24 in6.1 mm 1.09 in27.7 mm
01:10 PM 53.4°F11.9°C 50.2°F10.1°C 89% 0.5 mph ENE0.8 kmh ENE 3.0 mph4.8 kmh 29.61 in1002.7 mb 0.16 in4.1 mm 0.12 in3.0 mm 1.10 in27.9 mm
01:15 PM 53.2°F11.8°C 50.3°F10.2°C 90% Calm Calm 3.0 mph4.8 kmh 29.61 in1002.7 mb 0.17 in4.3 mm 0.12 in3.0 mm 1.11 in28.2 mm
01:20 PM 53.0°F11.7°C 50.1°F10.1°C 90% Calm Calm -- 29.61 in1002.7 mb 0.17 in4.3 mm 0.00 in0.0 mm 1.12 in28.4 mm
01:25 PM 52.9°F11.6°C 50.0°F10.0°C 90% Calm Calm -- 29.60 in1002.4 mb 0.19 in4.8 mm 0.24 in6.1 mm 1.13 in28.7 mm
01:30 PM 52.9°F11.6°C 50.0°F10.0°C 90% 0.1 mph NE0.2 kmh NE 4.0 mph6.4 kmh 29.60 in1002.4 mb 0.18 in4.6 mm 0.00 in0.0 mm 1.13 in28.7 mm
01:35 PM 53.1°F11.7°C 50.5°F10.3°C 91% 0.9 mph NE1.4 kmh NE 5.0 mph8.0 kmh 29.60 in1002.4 mb 0.17 in4.3 mm 0.00 in0.0 mm 1.13 in28.7 mm
01:40 PM 53.2°F11.8°C 50.6°F10.3°C 91% 1.8 mph NE2.9 kmh NE 5.0 mph8.0 kmh 29.60 in1002.4 mb 0.13 in3.3 mm 0.00 in0.0 mm 1.13 in28.7 mm
01:45 PM 53.2°F11.8°C 50.6°F10.3°C 91% 1.8 mph NE2.9 kmh NE 4.0 mph6.4 kmh 29.60 in1002.4 mb 0.10 in2.5 mm 0.00 in0.0 mm 1.13 in28.7 mm
01:50 PM 53.3°F11.8°C 50.7°F10.4°C 91% 1.3 mph NE2.1 kmh NE 3.0 mph4.8 kmh 29.60 in1002.4 mb 0.07 in1.8 mm 0.00 in0.0 mm 1.13 in28.7 mm
01:55 PM 53.4°F11.9°C 50.8°F10.4°C 91% 0.5 mph 0.8 kmh -- 29.60 in1002.4 mb 0.06 in1.5 mm 0.00 in0.0 mm 1.13 in28.7 mm
02:00 PM 53.5°F11.9°C 50.9°F10.5°C 91% Calm Calm -- 29.60 in1002.4 mb 0.06 in1.5 mm 0.00 in0.0 mm 1.13 in28.7 mm
02:05 PM 53.5°F11.9°C 50.9°F10.5°C 91% Calm Calm -- 29.60 in1002.4 mb 0.04 in1.0 mm 0.00 in0.0 mm 1.13 in28.7 mm
02:10 PM 53.7°F12.1°C 51.1°F10.6°C 91% Calm Calm -- 29.60 in1002.4 mb 0.04 in1.0 mm 0.00 in0.0 mm 1.14 in29.0 mm
02:15 PM 53.9°F12.2°C 51.3°F10.7°C 91% Calm Calm -- 29.60 in1002.4 mb 0.04 in1.0 mm 0.00 in0.0 mm 1.15 in29.2 mm
02:20 PM 53.9°F12.2°C 51.3°F10.7°C 91% Calm Calm 5.0 mph8.0 kmh 29.60 in1002.4 mb 0.04 in1.0 mm 0.00 in0.0 mm 1.16 in29.5 mm
02:25 PM 53.7°F12.1°C 51.1°F10.6°C 91% 0.4 mph SW0.6 kmh SW 6.0 mph9.7 kmh 29.60 in1002.4 mb 0.02 in0.5 mm 0.00 in0.0 mm 1.16 in29.5 mm
02:30 PM 53.6°F12.0°C 51.3°F10.7°C 92% 1.4 mph SW2.3 kmh SW 6.0 mph9.7 kmh 29.60 in1002.4 mb 0.04 in1.0 mm 0.24 in6.1 mm 1.17 in29.7 mm
02:35 PM 53.6°F12.0°C 51.3°F10.7°C 92% 1.7 mph SW2.7 kmh SW 5.0 mph8.0 kmh 29.61 in1002.7 mb 0.06 in1.5 mm 0.24 in6.1 mm 1.19 in30.2 mm
02:40 PM 53.5°F11.9°C 51.2°F10.7°C 92% 1.2 mph WSW1.9 kmh WSW 5.0 mph8.0 kmh 29.61 in1002.7 mb 0.07 in1.8 mm 0.12 in3.0 mm 1.20 in30.5 mm
02:45 PM 53.5°F11.9°C 51.2°F10.7°C 92% 0.8 mph SW1.3 kmh SW 2.0 mph3.2 kmh 29.61 in1002.7 mb 0.08 in2.0 mm 0.12 in3.0 mm 1.21 in30.7 mm
02:50 PM 53.4°F11.9°C 51.1°F10.6°C 92% 0.3 mph 0.5 kmh -- 29.61 in1002.7 mb 0.09 in2.3 mm 0.12 in3.0 mm 1.23 in31.2 mm
02:55 PM 53.5°F11.9°C 51.5°F10.8°C 93% Calm Calm -- 29.61 in1002.7 mb 0.10 in2.5 mm 0.12 in3.0 mm 1.24 in31.5 mm
03:00 PM 53.5°F11.9°C 51.5°F10.8°C 93% Calm Calm -- 29.61 in1002.7 mb 0.11 in2.8 mm 0.01 in0.3 mm 1.24 in31.5 mm
03:05 PM 53.4°F11.9°C 51.4°F10.8°C 93% Calm Calm -- 29.61 in1002.7 mb 0.12 in3.0 mm 0.12 in3.0 mm 1.25 in31.8 mm
03:10 PM 53.4°F11.9°C 51.4°F10.8°C 93% Calm Calm -- 29.61 in1002.7 mb 0.13 in3.3 mm 0.12 in3.0 mm 1.27 in32.3 mm
03:15 PM 53.4°F11.9°C 51.4°F10.8°C 93% Calm Calm -- 29.61 in1002.7 mb 0.14 in3.6 mm 0.12 in3.0 mm 1.29 in32.8 mm
03:20 PM 53.3°F11.8°C 51.3°F10.7°C 93% Calm Calm 2.0 mph3.2 kmh 29.61 in1002.7 mb 0.15 in3.8 mm 0.12 in3.0 mm 1.31 in33.3 mm
03:25 PM 53.3°F11.8°C 51.3°F10.7°C 93% Calm Calm 2.0 mph3.2 kmh 29.62 in1003.0 mb 0.16 in4.1 mm 0.12 in3.0 mm 1.31 in33.3 mm
03:30 PM 53.3°F11.8°C 51.6°F10.9°C 94% Calm Calm 1.0 mph1.6 kmh 29.62 in1003.0 mb 0.16 in4.1 mm 0.00 in0.0 mm 1.33 in33.8 mm
03:35 PM 53.3°F11.8°C 51.6°F10.9°C 94% Calm Calm -- 29.62 in1003.0 mb 0.15 in3.8 mm 0.00 in0.0 mm 1.35 in34.3 mm
03:40 PM 53.4°F11.9°C 51.7°F10.9°C 94% Calm Calm -- 29.62 in1003.0 mb 0.16 in4.1 mm 0.12 in3.0 mm 1.36 in34.5 mm
03:45 PM 53.4°F11.9°C 51.7°F10.9°C 94% Calm Calm -- 29.62 in1003.0 mb 0.17 in4.3 mm 0.12 in3.0 mm 1.39 in35.3 mm
03:50 PM 53.3°F11.8°C 51.6°F10.9°C 94% Calm Calm -- 29.62 in1003.0 mb 0.19 in4.8 mm 0.24 in6.1 mm 1.42 in36.1 mm
03:55 PM 53.2°F11.8°C 51.5°F10.8°C 94% Calm Calm 3.0 mph4.8 kmh 29.63 in1003.4 mb 0.20 in5.1 mm 0.12 in3.0 mm 1.44 in36.6 mm
04:00 PM 53.1°F11.7°C 51.1°F10.6°C 93% 0.1 mph SSW0.2 kmh SSW 6.0 mph9.7 kmh 29.63 in1003.4 mb 0.21 in5.3 mm 0.01 in0.3 mm 1.46 in37.1 mm
04:05 PM 52.9°F11.6°C 51.2°F10.7°C 94% 0.9 mph SSW1.4 kmh SSW 10.0 mph16.1 kmh 29.64 in1003.7 mb 0.22 in5.6 mm 0.12 in3.0 mm 1.48 in37.6 mm
04:10 PM 52.6°F11.4°C 50.6°F10.3°C 93% 2.6 mph SW4.2 kmh SW 10.0 mph16.1 kmh 29.64 in1003.7 mb 0.24 in6.1 mm 0.24 in6.1 mm 1.51 in38.4 mm
04:15 PM 52.5°F11.4°C 50.8°F10.4°C 94% 3.6 mph SW5.8 kmh SW 9.0 mph14.5 kmh 29.63 in1003.4 mb 0.24 in6.1 mm 0.00 in0.0 mm 1.53 in38.9 mm
04:20 PM 52.5°F11.4°C 50.8°F10.4°C 94% 2.4 mph SW3.9 kmh SW 4.0 mph6.4 kmh 29.64 in1003.7 mb 0.24 in6.1 mm 0.00 in0.0 mm 1.54 in39.1 mm
04:25 PM 52.4°F11.3°C 50.7°F10.4°C 94% 0.6 mph NE1.0 kmh NE 2.0 mph3.2 kmh 29.64 in1003.7 mb 0.24 in6.1 mm 0.00 in0.0 mm 1.56 in39.6 mm
04:30 PM 52.4°F11.3°C 50.7°F10.4°C 94% 0.1 mph NE0.2 kmh NE 5.0 mph8.0 kmh 29.63 in1003.4 mb 0.24 in6.1 mm 0.00 in0.0 mm 1.57 in39.9 mm
04:35 PM 52.2°F11.2°C 50.5°F10.3°C 94% 1.0 mph NE1.6 kmh NE 8.0 mph12.9 kmh 29.62 in1003.0 mb 0.24 in6.1 mm 0.00 in0.0 mm 1.58 in40.1 mm
04:40 PM 52.1°F11.2°C 50.4°F10.2°C 94% 2.4 mph NE3.9 kmh NE 8.0 mph12.9 kmh 29.63 in1003.4 mb 0.23 in5.8 mm 0.00 in0.0 mm 1.59 in40.4 mm
04:45 PM 52.0°F11.1°C 50.3°F10.2°C 94% 2.3 mph NE3.7 kmh NE 4.0 mph6.4 kmh 29.63 in1003.4 mb 0.20 in5.1 mm 0.00 in0.0 mm 1.59 in40.4 mm
04:50 PM 52.0°F11.1°C 50.3°F10.2°C 94% 1.0 mph NE1.6 kmh NE 4.0 mph6.4 kmh 29.63 in1003.4 mb 0.17 in4.3 mm 0.00 in0.0 mm 1.59 in40.4 mm
04:55 PM 51.9°F11.1°C 50.2°F10.1°C 94% 0.2 mph 0.3 kmh -- 29.63 in1003.4 mb 0.15 in3.8 mm 0.00 in0.0 mm 1.59 in40.4 mm
05:00 PM 51.8°F11.0°C 50.1°F10.1°C 94% Calm Calm -- 29.63 in1003.4 mb 0.13 in3.3 mm 0.00 in0.0 mm 1.59 in40.4 mm
05:05 PM 51.8°F11.0°C 50.1°F10.1°C 94% Calm Calm -- 29.64 in1003.7 mb 0.11 in2.8 mm 0.00 in0.0 mm 1.59 in40.4 mm
05:10 PM 51.7°F10.9°C 50.0°F10.0°C 94% Calm Calm -- 29.64 in1003.7 mb 0.09 in2.3 mm 0.00 in0.0 mm 1.60 in40.6 mm
05:15 PM 51.7°F10.9°C 50.0°F10.0°C 94% Calm Calm -- 29.64 in1003.7 mb 0.06 in1.5 mm 0.00 in0.0 mm 1.60 in40.6 mm
05:20 PM 51.7°F10.9°C 50.0°F10.0°C 94% Calm Calm -- 29.64 in1003.7 mb 0.06 in1.5 mm 0.00 in0.0 mm 1.60 in40.6 mm
05:25 PM 51.7°F10.9°C 50.0°F10.0°C 94% Calm Calm -- 29.65 in1004.1 mb 0.04 in1.0 mm 0.00 in0.0 mm 1.60 in40.6 mm
05:30 PM 51.6°F10.9°C 49.9°F9.9°C 94% Calm Calm -- 29.65 in1004.1 mb 0.03 in0.8 mm 0.00 in0.0 mm 1.60 in40.6 mm
05:35 PM 51.6°F10.9°C 49.9°F9.9°C 94% Calm Calm -- 29.64 in1003.7 mb 0.02 in0.5 mm 0.00 in0.0 mm 1.60 in40.6 mm
05:40 PM 51.7°F10.9°C 50.0°F10.0°C 94% Calm Calm -- 29.64 in1003.7 mb 0.02 in0.5 mm 0.00 in0.0 mm 1.61 in40.9 mm
05:45 PM 51.8°F11.0°C 50.1°F10.1°C 94% Calm Calm -- 29.64 in1003.7 mb 0.02 in0.5 mm 0.00 in0.0 mm 1.61 in40.9 mm
05:50 PM 51.9°F11.1°C 50.2°F10.1°C 94% Calm Calm -- 29.64 in1003.7 mb 0.02 in0.5 mm 0.00 in0.0 mm 1.61 in40.9 mm
05:55 PM 51.8°F11.0°C 50.1°F10.1°C 94% Calm Calm -- 29.65 in1004.1 mb 0.02 in0.5 mm 0.00 in0.0 mm 1.61 in40.9 mm
06:00 PM 51.9°F11.1°C 50.2°F10.1°C 94% Calm Calm -- 29.65 in1004.1 mb 0.02 in0.5 mm 0.00 in0.0 mm 1.61 in40.9 mm
06:05 PM 52.0°F11.1°C 50.3°F10.2°C 94% Calm Calm -- 29.65 in1004.1 mb 0.02 in0.5 mm 0.00 in0.0 mm 1.61 in40.9 mm
06:10 PM 52.0°F11.1°C 50.3°F10.2°C 94% Calm Calm -- 29.65 in1004.1 mb 0.02 in0.5 mm 0.00 in0.0 mm 1.61 in40.9 mm
06:15 PM 51.9°F11.1°C 50.2°F10.1°C 94% Calm Calm -- 29.65 in1004.1 mb 0.02 in0.5 mm 0.00 in0.0 mm 1.61 in40.9 mm
06:20 PM 51.7°F10.9°C 50.0°F10.0°C 94% Calm Calm 2.0 mph3.2 kmh 29.64 in1003.7 mb 0.02 in0.5 mm 0.00 in0.0 mm 1.61 in40.9 mm
06:25 PM 51.6°F10.9°C 49.9°F9.9°C 94% 0.4 mph NNE0.6 kmh NNE 3.0 mph4.8 kmh 29.64 in1003.7 mb 0.02 in0.5 mm 0.00 in0.0 mm 1.62 in41.1 mm
06:30 PM 51.5°F10.8°C 49.8°F9.9°C 94% 1.2 mph NE1.9 kmh NE 4.0 mph6.4 kmh 29.65 in1004.1 mb 0.02 in0.5 mm 0.00 in0.0 mm 1.62 in41.1 mm
06:35 PM 51.4°F10.8°C 49.7°F9.8°C 94% 1.3 mph NE2.1 kmh NE 4.0 mph6.4 kmh 29.64 in1003.7 mb 0.02 in0.5 mm 0.00 in0.0 mm 1.62 in41.1 mm
06:40 PM 51.4°F10.8°C 49.7°F9.8°C 94% 1.0 mph NE1.6 kmh NE 4.0 mph6.4 kmh 29.64 in1003.7 mb 0.02 in0.5 mm 0.00 in0.0 mm 1.63 in41.4 mm
06:45 PM 51.3°F10.7°C 49.6°F9.8°C 94% 1.0 mph NE1.6 kmh NE 3.0 mph4.8 kmh 29.64 in1003.7 mb 0.03 in0.8 mm 0.12 in3.0 mm 1.64 in41.7 mm
06:50 PM 51.3°F10.7°C 49.6°F9.8°C 94% 0.7 mph 1.1 kmh -- 29.65 in1004.1 mb 0.03 in0.8 mm 0.00 in0.0 mm 1.64 in41.7 mm
06:55 PM 51.3°F10.7°C 49.6°F9.8°C 94% 0.2 mph 0.3 kmh -- 29.66 in1004.4 mb 0.03 in0.8 mm 0.00 in0.0 mm 1.64 in41.7 mm
07:00 PM 51.2°F10.7°C 49.5°F9.7°C 94% Calm Calm -- 29.66 in1004.4 mb 0.03 in0.8 mm 0.00 in0.0 mm 1.64 in41.7 mm
07:05 PM 51.3°F10.7°C 49.6°F9.8°C 94% Calm Calm -- 29.67 in1004.7 mb 0.03 in0.8 mm 0.00 in0.0 mm 1.65 in41.9 mm
07:10 PM 51.3°F10.7°C 49.6°F9.8°C 94% Calm Calm -- 29.67 in1004.7 mb 0.04 in1.0 mm 0.12 in3.0 mm 1.65 in41.9 mm
07:15 PM 51.3°F10.7°C 49.6°F9.8°C 94% Calm Calm -- 29.66 in1004.4 mb 0.05 in1.3 mm 0.12 in3.0 mm 1.66 in42.2 mm
07:20 PM 51.3°F10.7°C 49.6°F9.8°C 94% Calm Calm -- 29.67 in1004.7 mb 0.05 in1.3 mm 0.00 in0.0 mm 1.66 in42.2 mm
07:25 PM 51.5°F10.8°C 49.8°F9.9°C 94% Calm Calm -- 29.67 in1004.7 mb 0.06 in1.5 mm 0.12 in3.0 mm 1.68 in42.7 mm
07:30 PM 51.5°F10.8°C 49.8°F9.9°C 94% Calm Calm -- 29.66 in1004.4 mb 0.06 in1.5 mm 0.00 in0.0 mm 1.69 in42.9 mm
07:35 PM 51.4°F10.8°C 49.7°F9.8°C 94% Calm Calm -- 29.66 in1004.4 mb 0.06 in1.5 mm 0.00 in0.0 mm 1.69 in42.9 mm
07:40 PM 51.4°F10.8°C 49.7°F9.8°C 94% Calm Calm -- 29.66 in1004.4 mb 0.06 in1.5 mm 0.00 in0.0 mm 1.69 in42.9 mm
07:45 PM 51.4°F10.8°C 49.7°F9.8°C 94% Calm Calm -- 29.65 in1004.1 mb 0.05 in1.3 mm 0.00 in0.0 mm 1.69 in42.9 mm
07:50 PM 51.2°F10.7°C 49.5°F9.7°C 94% Calm Calm -- 29.66 in1004.4 mb 0.05 in1.3 mm 0.00 in0.0 mm 1.69 in42.9 mm
07:55 PM 51.2°F10.7°C 49.5°F9.7°C 94% Calm Calm -- 29.66 in1004.4 mb 0.05 in1.3 mm 0.00 in0.0 mm 1.69 in42.9 mm
08:00 PM 51.1°F10.6°C 49.4°F9.7°C 94% Calm Calm -- 29.67 in1004.7 mb 0.04 in1.0 mm 0.00 in0.0 mm 1.69 in42.9 mm
08:05 PM 51.0°F10.6°C 49.3°F9.6°C 94% Calm Calm -- 29.67 in1004.7 mb 0.04 in1.0 mm 0.00 in0.0 mm 1.69 in42.9 mm
08:10 PM 51.0°F10.6°C 49.3°F9.6°C 94% Calm Calm -- 29.67 in1004.7 mb 0.04 in1.0 mm 0.00 in0.0 mm 1.69 in42.9 mm
08:15 PM 51.0°F10.6°C 49.3°F9.6°C 94% Calm Calm -- 29.67 in1004.7 mb 0.04 in1.0 mm 0.00 in0.0 mm 1.70 in43.2 mm
08:20 PM 51.0°F10.6°C 49.6°F9.8°C 95% Calm Calm -- 29.68 in1005.1 mb 0.05 in1.3 mm 0.12 in3.0 mm 1.71 in43.4 mm
08:25 PM 51.0°F10.6°C 49.6°F9.8°C 95% Calm Calm -- 29.68 in1005.1 mb 0.04 in1.0 mm 0.00 in0.0 mm 1.72 in43.7 mm
08:30 PM 51.0°F10.6°C 49.6°F9.8°C 95% Calm Calm -- 29.68 in1005.1 mb 0.05 in1.3 mm 0.12 in3.0 mm 1.73 in43.9 mm
08:35 PM 51.1°F10.6°C 49.7°F9.8°C 95% Calm Calm 4.0 mph6.4 kmh 29.68 in1005.1 mb 0.09 in2.3 mm 0.48 in12.2 mm 1.78 in45.2 mm
08:40 PM 50.6°F10.3°C 48.7°F9.3°C 93% 0.2 mph WSW0.3 kmh WSW 10.0 mph16.1 kmh 29.68 in1005.1 mb 0.15 in3.8 mm 0.72 in18.3 mm 1.83 in46.5 mm
08:45 PM 49.2°F9.6°C 47.0°F8.3°C 92% 1.2 mph WSW1.9 kmh WSW 10.0 mph16.1 kmh 29.68 in1005.1 mb 0.19 in4.8 mm 0.48 in12.2 mm 1.87 in47.5 mm
08:50 PM 49.0°F9.4°C 47.1°F8.4°C 93% 1.9 mph W3.1 kmh W 5.0 mph8.0 kmh 29.68 in1005.1 mb 0.21 in5.3 mm 0.24 in6.1 mm 1.90 in48.3 mm
08:55 PM 48.8°F9.3°C 46.6°F8.1°C 92% 1.0 mph 1.6 kmh -- 29.68 in1005.1 mb 0.23 in5.8 mm 0.24 in6.1 mm 1.91 in48.5 mm
09:00 PM 48.9°F9.4°C 47.0°F8.3°C 93% 0.1 mph NE0.2 kmh NE 1.0 mph1.6 kmh 29.68 in1005.1 mb 0.24 in6.1 mm 0.01 in0.3 mm 1.92 in48.8 mm
09:05 PM 49.0°F9.4°C 46.8°F8.2°C 92% Calm Calm 1.0 mph1.6 kmh 29.70 in1005.8 mb 0.24 in6.1 mm 0.00 in0.0 mm 1.93 in49.0 mm
09:10 PM 48.9°F9.4°C 47.0°F8.3°C 93% Calm Calm -- 29.70 in1005.8 mb 0.24 in6.1 mm 0.00 in0.0 mm 1.94 in49.3 mm
09:15 PM 49.0°F9.4°C 46.8°F8.2°C 92% Calm Calm -- 29.71 in1006.1 mb 0.24 in6.1 mm 0.00 in0.0 mm 1.94 in49.3 mm
09:20 PM 49.1°F9.5°C 46.9°F8.3°C 92% Calm Calm -- 29.71 in1006.1 mb 0.24 in6.1 mm 0.00 in0.0 mm 1.95 in49.5 mm
09:25 PM 49.1°F9.5°C 46.9°F8.3°C 92% Calm Calm -- 29.71 in1006.1 mb 0.24 in6.1 mm 0.00 in0.0 mm 1.96 in49.8 mm
09:30 PM 49.1°F9.5°C 46.9°F8.3°C 92% Calm Calm -- 29.71 in1006.1 mb 0.24 in6.1 mm 0.00 in0.0 mm 1.98 in50.3 mm
09:35 PM 49.1°F9.5°C 46.9°F8.3°C 92% Calm Calm 5.0 mph8.0 kmh 29.69 in1005.4 mb 0.20 in5.1 mm 0.00 in0.0 mm 1.99 in50.5 mm
09:40 PM 49.0°F9.4°C 47.1°F8.4°C 93% 0.4 mph NE0.6 kmh NE 5.0 mph8.0 kmh 29.70 in1005.8 mb 0.17 in4.3 mm 0.00 in0.0 mm 2.01 in51.1 mm
09:45 PM 49.1°F9.5°C 47.2°F8.4°C 93% 1.4 mph NE2.3 kmh NE 5.0 mph8.0 kmh 29.69 in1005.4 mb 0.14 in3.6 mm 0.00 in0.0 mm 2.02 in51.3 mm
09:50 PM 49.1°F9.5°C 47.2°F8.4°C 93% 1.6 mph NE2.6 kmh NE 3.0 mph4.8 kmh 29.69 in1005.4 mb 0.13 in3.3 mm 0.00 in0.0 mm 2.02 in51.3 mm
09:55 PM 49.1°F9.5°C 47.2°F8.4°C 93% 1.1 mph NE1.8 kmh NE 3.0 mph4.8 kmh 29.69 in1005.4 mb 0.13 in3.3 mm 0.00 in0.0 mm 2.04 in51.8 mm
10:00 PM 49.1°F9.5°C 47.2°F8.4°C 93% 1.0 mph NE1.6 kmh NE 3.0 mph4.8 kmh 29.69 in1005.4 mb 0.13 in3.3 mm 0.00 in0.0 mm 2.05 in52.1 mm
10:05 PM 49.1°F9.5°C 47.2°F8.4°C 93% 1.0 mph NE1.6 kmh NE 2.0 mph3.2 kmh 29.70 in1005.8 mb 0.13 in3.3 mm 0.00 in0.0 mm 2.06 in52.3 mm
10:10 PM 49.1°F9.5°C 47.2°F8.4°C 93% 0.5 mph 0.8 kmh -- 29.70 in1005.8 mb 0.13 in3.3 mm 0.00 in0.0 mm 2.06 in52.3 mm
10:15 PM 49.1°F9.5°C 47.2°F8.4°C 93% Calm Calm -- 29.70 in1005.8 mb 0.12 in3.0 mm 0.00 in0.0 mm 2.06 in52.3 mm
10:20 PM 48.9°F9.4°C 47.0°F8.3°C 93% Calm Calm -- 29.70 in1005.8 mb 0.11 in2.8 mm 0.00 in0.0 mm 2.06 in52.3 mm
10:25 PM 48.8°F9.3°C 46.9°F8.3°C 93% Calm Calm -- 29.71 in1006.1 mb 0.11 in2.8 mm 0.00 in0.0 mm 2.07 in52.6 mm
10:30 PM 48.9°F9.4°C 47.0°F8.3°C 93% Calm Calm 2.0 mph3.2 kmh 29.70 in1005.8 mb 0.09 in2.3 mm 0.00 in0.0 mm 2.07 in52.6 mm
10:35 PM 48.9°F9.4°C 47.0°F8.3°C 93% Calm Calm 2.0 mph3.2 kmh 29.70 in1005.8 mb 0.09 in2.3 mm 0.00 in0.0 mm 2.08 in52.8 mm
10:40 PM 48.9°F9.4°C 47.0°F8.3°C 93% Calm Calm 1.0 mph1.6 kmh 29.71 in1006.1 mb 0.07 in1.8 mm 0.00 in0.0 mm 2.08 in52.8 mm
10:45 PM 48.8°F9.3°C 46.9°F8.3°C 93% Calm Calm -- 29.71 in1006.1 mb 0.07 in1.8 mm 0.00 in0.0 mm 2.09 in53.1 mm
10:50 PM 48.9°F9.4°C 47.0°F8.3°C 93% Calm Calm -- 29.72 in1006.4 mb 0.07 in1.8 mm 0.00 in0.0 mm 2.09 in53.1 mm
10:55 PM 48.9°F9.4°C 47.0°F8.3°C 93% Calm Calm -- 29.71 in1006.1 mb 0.06 in1.5 mm 0.00 in0.0 mm 2.09 in53.1 mm
11:00 PM 48.7°F9.3°C 46.8°F8.2°C 93% Calm Calm -- 29.72 in1006.4 mb 0.05 in1.3 mm 0.00 in0.0 mm 2.10 in53.3 mm
11:05 PM 48.4°F9.1°C 46.5°F8.1°C 93% Calm Calm -- 29.72 in1006.4 mb 0.05 in1.3 mm 0.00 in0.0 mm 2.10 in53.3 mm
11:10 PM 48.4°F9.1°C 46.5°F8.1°C 93% Calm Calm -- 29.73 in1006.8 mb 0.05 in1.3 mm 0.00 in0.0 mm 2.11 in53.6 mm
11:15 PM 48.5°F9.2°C 46.6°F8.1°C 93% Calm Calm 4.0 mph6.4 kmh 29.74 in1007.1 mb 0.05 in1.3 mm 0.00 in0.0 mm 2.11 in53.6 mm
11:20 PM 48.9°F9.4°C 47.2°F8.4°C 94% 0.2 mph SW0.3 kmh SW 4.0 mph6.4 kmh 29.74 in1007.1 mb 0.06 in1.5 mm 0.12 in3.0 mm 2.12 in53.8 mm
11:25 PM 48.7°F9.3°C 46.8°F8.2°C 93% 0.7 mph WSW1.1 kmh WSW 4.0 mph6.4 kmh 29.73 in1006.8 mb 0.06 in1.5 mm 0.00 in0.0 mm 2.13 in54.1 mm
11:30 PM 48.6°F9.2°C 46.7°F8.2°C 93% 1.0 mph WSW1.6 kmh WSW 4.0 mph6.4 kmh 29.74 in1007.1 mb 0.06 in1.5 mm 0.00 in0.0 mm 2.13 in54.1 mm
11:35 PM 48.7°F9.3°C 46.8°F8.2°C 93% 1.0 mph WSW1.6 kmh WSW 3.0 mph4.8 kmh 29.74 in1007.1 mb 0.06 in1.5 mm 0.00 in0.0 mm 2.13 in54.1 mm
11:40 PM 48.7°F9.3°C 46.8°F8.2°C 93% 0.6 mph WSW1.0 kmh WSW 2.0 mph3.2 kmh 29.74 in1007.1 mb 0.06 in1.5 mm 0.00 in0.0 mm 2.13 in54.1 mm
11:45 PM 48.6°F9.2°C 46.7°F8.2°C 93% 0.1 mph WSW0.2 kmh WSW 3.0 mph4.8 kmh 29.74 in1007.1 mb 0.05 in1.3 mm 0.00 in0.0 mm 2.14 in54.4 mm
11:50 PM 48.5°F9.2°C 46.6°F8.1°C 93% 0.4 mph WSW0.6 kmh WSW 3.0 mph4.8 kmh 29.74 in1007.1 mb 0.06 in1.5 mm 0.12 in3.0 mm 2.15 in54.6 mm
11:55 PM 48.5°F9.2°C 46.6°F8.1°C 93% 0.9 mph WSW1.4 kmh WSW 3.0 mph4.8 kmh 29.74 in1007.1 mb 0.06 in1.5 mm 0.00 in0.0 mm 2.16 in54.9 mm